Time;durP1;ratioP1;P1;durP2;ratioP2;P2;SDS_P1;SDS_P2;PMS_P1;PMS_P2;Temp;Humidity;BMP_temperature;BMP_pressure;BME280_temperature;BME280_humidity;BME280_pressure;Samples;Min_cycle;Max_cycle;Signal;HPM_P1;HPM_P2
2023/01/26 00:01:21;;;;;;;9.30;4.10;;;;;;;-1.53;71.91;99920.89;105886;1259;73994;-25
2023/01/26 00:03:49;;;;;;;5.10;3.40;;;;;;;-1.63;71.54;99912.55;105616;1254;61122;-25
2023/01/26 00:06:17;;;;;;;4.60;3.10;;;;;;;-1.82;71.74;99906.58;105498;1254;61786;-25
2023/01/26 00:08:47;;;;;;;3.10;2.50;;;;;;;-2.05;71.96;99906.94;105560;1255;75140;-25
2023/01/26 00:11:23;;;;;;;6.60;3.10;;;;;;;-2.26;72.48;99901.82;105606;1259;73793;-25
2023/01/26 00:13:50;;;;;;;11.20;4.80;;;;;;;-2.51;72.94;99895.88;105675;1254;74057;-25
2023/01/26 00:16:18;;;;;;;9.60;4.90;;;;;;;-2.69;73.95;99892.74;105828;1254;61059;-25
2023/01/26 00:18:46;;;;;;;5.00;3.30;;;;;;;-2.86;73.93;99886.48;105735;1257;61918;-25
2023/01/26 00:21:16;;;;;;;2.60;1.60;;;;;;;-3.01;74.76;99886.52;105798;1254;75281;-25
2023/01/26 00:23:43;;;;;;;2.40;1.80;;;;;;;-2.80;75.10;99884.70;105609;1257;75931;-25
2023/01/26 00:26:18;;;;;;;6.20;2.50;;;;;;;-2.04;73.64;99882.08;105526;1254;74279;-25
2023/01/26 00:28:45;;;;;;;4.50;3.20;;;;;;;-1.74;72.42;99883.95;105682;1260;61661;-25
2023/01/26 00:31:15;;;;;;;3.10;2.60;;;;;;;-1.79;72.29;99878.44;105827;1258;61581;-25
2023/01/26 00:33:43;;;;;;;4.90;2.90;;;;;;;-1.96;72.38;99878.55;105661;1254;75887;-25
2023/01/26 00:36:11;;;;;;;4.90;2.70;;;;;;;-2.17;72.39;99878.70;105844;1257;75754;-25
2023/01/26 00:38:39;;;;;;;5.30;3.30;;;;;;;-2.37;73.26;99873.91;105764;1256;73990;-25
2023/01/26 00:42:05;;;;;;;6.20;3.80;;;;;;;-2.52;73.47;99871.41;105581;1259;61103;-24
2023/01/26 00:43:56;;;;;;;4.20;2.30;;;;;;;-2.67;73.73;99871.63;105880;1257;61831;-26
2023/01/26 00:46:23;;;;;;;6.50;2.70;;;;;;;-2.81;74.07;99871.47;105880;1254;75344;-25
2023/01/26 00:48:52;;;;;;;3.90;3.00;;;;;;;-2.95;74.40;99866.89;105857;1257;75739;-25
2023/01/26 00:51:19;;;;;;;4.60;2.30;;;;;;;-3.03;74.56;99863.77;105836;1254;73941;-25
2023/01/26 00:53:46;;;;;;;3.50;2.30;;;;;;;-2.48;74.67;99864.89;105831;1259;61211;-25
2023/01/26 00:56:16;;;;;;;4.60;2.80;;;;;;;-1.75;72.97;99864.56;105848;1258;61710;-25
2023/01/26 00:58:44;;;;;;;4.30;2.60;;;;;;;-1.59;71.82;99861.23;105746;1254;75362;-25
2023/01/26 01:01:11;;;;;;;4.30;2.40;;;;;;;-1.66;71.71;99866.29;105758;1254;74907;-25
2023/01/26 01:03:43;;;;;;;3.60;2.40;;;;;;;-1.82;71.77;99866.40;105524;1254;73238;-25
2023/01/26 01:06:11;;;;;;;4.40;2.60;;;;;;;-2.06;71.74;99861.17;105579;1254;61085;-25
2023/01/26 01:08:38;;;;;;;4.20;2.90;;;;;;;-2.28;71.91;99863.40;105649;1254;61326;-25
2023/01/26 01:11:08;;;;;;;4.30;2.50;;;;;;;-2.47;72.57;99863.02;105833;1254;74436;-25
2023/01/26 01:13:35;;;;;;;3.90;2.60;;;;;;;-2.66;73.12;99867.87;105686;1254;74569;-25
2023/01/26 01:16:07;;;;;;;4.90;3.20;;;;;;;-2.78;73.38;99868.38;105877;1254;74175;-25
2023/01/26 01:18:35;;;;;;;5.90;2.90;;;;;;;-2.91;73.61;99865.48;105676;1254;60997;-25
2023/01/26 01:21:21;;;;;;;4.30;2.80;;;;;;;-3.05;74.40;99862.26;105666;1260;61716;-25
2023/01/26 01:23:48;;;;;;;3.90;2.30;;;;;;;-3.07;75.08;99860.59;105717;1254;75340;-25
2023/01/26 01:26:15;;;;;;;5.60;3.20;;;;;;;-2.37;74.60;99857.23;105570;1255;75705;-25
2023/01/26 01:28:46;;;;;;;5.60;3.10;;;;;;;-1.64;72.71;99852.48;105827;1254;73823;-25
2023/01/26 01:31:15;;;;;;;4.20;2.80;;;;;;;-1.53;71.51;99849.20;105825;1254;61065;-25
2023/01/26 01:33:42;;;;;;;3.80;2.90;;;;;;;-1.69;71.27;99842.16;105551;1260;61589;-25
2023/01/26 01:36:12;;;;;;;5.20;2.90;;;;;;;-1.91;71.45;99848.68;105639;1255;75183;-25
2023/01/26 01:38:41;;;;;;;4.40;3.00;;;;;;;-2.16;71.71;99844.66;105634;1255;75544;-25
2023/01/26 01:41:08;;;;;;;4.90;2.30;;;;;;;-2.32;72.32;99843.39;105482;1253;74123;-25
2023/01/26 01:43:35;;;;;;;5.20;3.00;;;;;;;-2.53;72.85;99846.94;105488;1254;61124;-25
2023/01/26 01:46:25;;;;;;;5.60;3.30;;;;;;;-2.67;73.05;99849.70;105663;1254;61170;-25
2023/01/26 01:48:57;;;;;;;4.00;2.10;;;;;;;-2.82;73.37;99837.83;105422;1254;75172;-25
2023/01/26 01:51:45;;;;;;;4.00;2.80;;;;;;;-2.93;73.72;99834.08;105401;1254;75813;-24
2023/01/26 01:54:18;;;;;;;4.60;3.10;;;;;;;-3.04;73.98;99829.63;105644;1253;74214;-25
2023/01/26 01:56:47;;;;;;;5.30;2.80;;;;;;;-2.72;74.56;99822.89;105714;1254;62542;-25
2023/01/26 01:59:20;;;;;;;;;;;;;;;-1.79;74.04;99819.02;105674;1257;61789;-25
2023/01/26 02:01:48;;;;;;;4.50;2.50;;;;;;;-1.46;72.65;99817.23;105842;1254;75265;-25
2023/01/26 02:04:15;;;;;;;6.00;3.10;;;;;;;-1.50;72.09;99809.45;105907;1254;75860;-25
2023/01/26 02:06:50;;;;;;;4.80;3.00;;;;;;;-1.70;71.63;99807.27;105899;1254;74259;-25
2023/01/26 02:12:06;;;;;;;7.00;3.50;;;;;;;-2.21;72.56;99800.17;105675;1258;61650;-25
2023/01/26 02:14:33;;;;;;;5.50;3.10;;;;;;;-2.36;72.87;99802.13;105746;1258;75420;-26
2023/01/26 02:17:01;;;;;;;6.60;3.40;;;;;;;-2.54;73.52;99801.23;105820;1257;75372;-25
2023/01/26 02:19:34;;;;;;;5.60;3.50;;;;;;;-2.71;73.59;99799.95;105508;1253;73844;-25
2023/01/26 02:22:04;;;;;;;;;;;;;;;-2.85;74.03;99797.95;105539;1254;61058;-25
2023/01/26 02:24:34;;;;;;;6.10;2.90;;;;;;;-3.00;74.56;99800.70;105514;1260;61571;-26
2023/01/26 02:27:01;;;;;;;7.90;3.50;;;;;;;-3.06;74.79;99800.43;105566;1259;75381;-25
2023/01/26 02:29:28;;;;;;;3.50;2.30;;;;;;;-2.56;74.93;99796.83;105894;1255;75616;-25
2023/01/26 02:31:55;;;;;;;6.30;3.20;;;;;;;-1.76;73.79;99787.80;105819;1254;73981;-25
2023/01/26 02:34:27;;;;;;;9.40;5.40;;;;;;;-1.54;72.28;99784.31;105795;1257;61079;-25
2023/01/26 02:36:58;;;;;;;6.20;4.10;;;;;;;-1.61;72.36;99780.04;105521;1257;61726;-25
2023/01/26 02:39:33;;;;;;;7.30;4.70;;;;;;;-1.81;71.98;99779.21;105620;1255;74983;-25
2023/01/26 02:44:47;;;;;;;9.50;5.50;;;;;;;-2.29;72.76;99775.83;105821;1254;73135;-26
2023/01/26 02:47:16;;;;;;;7.80;5.10;;;;;;;-2.46;72.88;99773.05;105837;1257;61192;-25
2023/01/26 02:49:49;;;;;;;8.50;5.90;;;;;;;-2.62;73.50;99769.73;105647;1254;61096;-25
2023/01/26 02:52:22;;;;;;;9.50;6.30;;;;;;;-2.78;74.01;99771.48;105680;1254;75769;-25
2023/01/26 02:55:41;;;;;;;8.30;4.80;;;;;;;-2.92;74.45;99770.35;105573;1257;73912;-25
2023/01/26 02:57:44;;;;;;;9.00;4.10;;;;;;;-2.97;75.00;99765.98;105400;1254;74028;-25
2023/01/26 03:00:18;;;;;;;4.20;2.80;;;;;;;-2.29;75.10;99764.59;105549;1254;61136;-25
2023/01/26 03:02:45;;;;;;;8.00;4.50;;;;;;;-1.48;73.00;99755.92;105464;1259;61731;-25
2023/01/26 03:05:13;;;;;;;5.30;3.60;;;;;;;-1.32;71.65;99754.41;105591;1254;75531;-25
2023/01/26 03:07:41;;;;;;;9.40;5.70;;;;;;;-1.46;71.06;99755.54;105633;1258;75827;-26
2023/01/26 03:10:09;;;;;;;9.80;4.10;;;;;;;-1.69;71.35;99748.70;105805;1254;74215;-25
2023/01/26 03:12:37;;;;;;;7.30;4.70;;;;;;;-1.87;72.16;99750.23;105590;1254;61115;-25
2023/01/26 03:29:10;;;;;;;10.10;6.60;;;;;;;-2.87;72.90;99732.02;105697;1254;61558;-25
2023/01/26 03:31:38;;;;;;;7.40;4.00;;;;;;;-3.00;73.62;99738.34;105811;1254;74810;-25
2023/01/26 03:34:05;;;;;;;9.20;5.70;;;;;;;-3.07;73.55;99737.43;105712;1257;75716;-24
2023/01/26 03:36:32;;;;;;;7.80;4.20;;;;;;;-3.12;73.69;99736.98;105854;1257;74159;-25
2023/01/26 03:39:01;;;;;;;6.80;3.90;;;;;;;-2.53;74.16;99730.95;105728;1254;62835;-25
2023/01/26 03:58:08;;;;;;;44.70;18.20;;;;;;;-2.32;71.59;99728.08;105876;1253;75407;-25
2023/01/26 04:00:35;;;;;;;35.10;15.40;;;;;;;-2.48;72.03;99721.55;105822;1257;73680;-26
2023/01/26 04:08:46;;;;;;;19.20;8.80;;;;;;;-2.91;73.23;99728.52;105592;1260;61953;-25
2023/01/26 04:11:14;;;;;;;14.30;6.60;;;;;;;-3.00;73.20;99726.95;105616;1257;74464;-25
2023/01/26 04:22:03;;;;;;;41.20;17.10;;;;;;;-1.32;71.61;99717.45;105550;1257;61880;-25
2023/01/26 04:24:33;;;;;;;24.50;11.40;;;;;;;-1.48;70.87;99713.86;105728;1254;75377;-26
2023/01/26 04:27:00;;;;;;;20.70;9.80;;;;;;;-1.72;71.10;99713.52;105264;1260;75810;-25
2023/01/26 04:29:34;;;;;;;;;;;;;;;-1.93;71.43;99706.76;105523;1259;72606;-25
2023/01/26 04:32:03;;;;;;;13.00;6.60;;;;;;;-2.11;71.72;99703.54;105593;1254;62562;-25
2023/01/26 04:34:32;;;;;;;15.30;6.70;;;;;;;-2.29;71.48;99706.08;105569;1257;61586;-25
2023/01/26 04:37:01;;;;;;;11.00;6.10;;;;;;;-2.46;71.51;99708.59;105545;1253;74093;-25
2023/01/26 04:39:41;;;;;;;10.70;5.90;;;;;;;-2.63;72.12;99708.36;105541;1256;74979;-25
2023/01/26 04:42:08;;;;;;;10.30;6.00;;;;;;;-2.76;72.52;99708.58;105504;1257;74178;-25
2023/01/26 04:52:15;;;;;;;6.20;3.60;;;;;;;-3.02;74.58;99694.70;102667;1290;599497;-25
2023/01/26 04:54:45;;;;;;;7.80;4.20;;;;;;;-2.26;74.25;99690.88;104942;1264;61133;-26
2023/01/26 04:57:14;;;;;;;10.00;5.30;;;;;;;-1.54;72.41;99689.98;105236;1267;61817;-26
2023/01/26 04:59:46;;;;;;;12.00;6.00;;;;;;;-1.38;71.19;99690.48;104974;1269;73650;-26
2023/01/26 05:02:15;;;;;;;9.10;5.20;;;;;;;-1.51;71.11;99689.90;104956;1263;75665;-26
2023/01/26 05:04:43;;;;;;;8.20;5.40;;;;;;;-1.71;71.27;99691.33;104022;1266;1557755;-27
2023/01/26 05:07:12;;;;;;;9.90;5.40;;;;;;;-1.96;71.40;99692.53;105203;1270;61193;-26
2023/01/26 05:09:41;;;;;;;11.30;6.10;;;;;;;-2.16;71.75;99696.66;105221;1267;61861;-26
2023/01/26 05:12:42;;;;;;;14.90;6.90;;;;;;;-2.37;72.61;99697.89;105080;1267;73737;-26
2023/01/26 05:15:14;;;;;;;12.50;7.50;;;;;;;-2.53;72.80;99702.08;105240;1263;75885;-26
2023/01/26 05:18:13;;;;;;;11.10;6.80;;;;;;;-2.74;73.28;99700.73;104809;1274;74245;-26
2023/01/26 05:20:57;;;;;;;11.20;5.80;;;;;;;-2.90;73.68;99699.80;105117;1263;61050;-25
2023/01/26 05:23:27;;;;;;;9.20;4.90;;;;;;;-2.64;74.22;99701.58;105232;1264;61156;-25
2023/01/26 05:26:23;;;;;;;13.10;6.00;;;;;;;-1.59;73.49;99704.38;105263;1264;74346;-25
2023/01/26 05:30:22;;;;;;;9.60;6.40;;;;;;;-1.23;71.54;99704.27;103568;1280;616534;-24
2023/01/26 05:32:50;;;;;;;10.90;6.50;;;;;;;-1.37;71.97;99706.13;105153;1264;61004;-26
2023/01/26 05:35:18;;;;;;;11.70;6.60;;;;;;;-1.62;71.74;99706.13;105094;1264;61662;-26
2023/01/26 05:37:45;;;;;;;15.30;7.60;;;;;;;-1.84;72.64;99706.59;104901;1269;74277;-25
2023/01/26 05:40:13;;;;;;;17.40;8.50;;;;;;;-2.06;72.71;99698.67;105305;1265;74333;-24
2023/01/26 05:42:42;;;;;;;14.80;7.90;;;;;;;-2.25;73.38;99698.35;104020;1266;1659584;-24
2023/01/26 05:45:42;;;;;;;12.70;6.30;;;;;;;-2.44;73.74;99696.98;105025;1260;61177;-25
2023/01/26 05:48:10;;;;;;;16.60;8.00;;;;;;;-2.59;73.42;99692.99;105419;1263;61785;-25
2023/01/26 05:50:38;;;;;;;12.60;7.00;;;;;;;-2.75;73.88;99690.02;105563;1263;73732;-25
2023/01/26 05:53:18;;;;;;;7.90;4.90;;;;;;;-2.84;74.09;99695.10;105587;1260;75781;-25
2023/01/26 05:55:46;;;;;;;13.60;5.90;;;;;;;-2.24;74.40;99693.23;105256;1261;73508;-25
2023/01/26 05:58:13;;;;;;;14.30;6.50;;;;;;;-1.55;73.28;99691.01;105243;1260;61883;-26
2023/01/26 06:00:41;;;;;;;17.20;8.70;;;;;;;-1.38;71.99;99687.24;105216;1263;61803;-25
2023/01/26 06:03:12;;;;;;;15.50;8.10;;;;;;;-1.58;71.33;99692.94;105272;1260;74653;-25
2023/01/26 06:05:41;;;;;;;16.20;7.60;;;;;;;-1.81;71.51;99692.75;105288;1266;76010;-25
2023/01/26 06:08:16;;;;;;;13.70;5.90;;;;;;;-2.07;72.27;99690.36;105534;1260;74187;-25
2023/01/26 06:11:02;;;;;;;11.60;6.40;;;;;;;-2.34;72.55;99691.88;105140;1260;61157;-25
2023/01/26 06:13:45;;;;;;;14.50;7.10;;;;;;;-2.62;73.39;99686.58;105456;1263;61605;-25
2023/01/26 06:16:19;;;;;;;10.30;5.50;;;;;;;-2.76;73.88;99684.27;105271;1260;74465;-27
2023/01/26 06:18:48;;;;;;;10.50;6.40;;;;;;;-2.89;74.21;99683.11;105181;1261;76294;-24
2023/01/26 06:21:16;;;;;;;15.40;7.30;;;;;;;-2.92;74.40;99686.90;105257;1260;74238;-25
2023/01/26 06:23:44;;;;;;;12.40;5.70;;;;;;;-2.27;73.93;99685.79;105521;1258;61008;-25
2023/01/26 06:26:11;;;;;;;12.00;5.90;;;;;;;-1.85;72.75;99686.35;105295;1260;61219;-24
2023/01/26 06:28:39;;;;;;;11.30;6.10;;;;;;;-1.86;71.82;99686.73;105199;1264;74282;-24
2023/01/26 06:31:07;;;;;;;11.30;6.00;;;;;;;-2.04;71.95;99685.35;105228;1261;75809;-24
2023/01/26 06:33:36;;;;;;;12.90;6.60;;;;;;;-2.27;72.08;99690.39;105221;1260;73078;-24
2023/01/26 06:36:06;;;;;;;12.00;6.80;;;;;;;-2.45;72.47;99693.59;105266;1260;61114;-24
2023/01/26 06:38:34;;;;;;;12.60;6.60;;;;;;;-2.63;72.93;99693.40;105230;1260;61186;-24
2023/01/26 06:41:03;;;;;;;10.40;6.40;;;;;;;-2.78;73.26;99691.10;105179;1260;74175;-27
2023/01/26 06:43:34;;;;;;;8.80;5.10;;;;;;;-2.96;73.72;99694.78;105662;1254;75506;-26
2023/01/26 06:46:03;;;;;;;11.50;6.30;;;;;;;-3.08;74.33;99694.28;105723;1257;74439;-24
2023/01/26 06:48:32;;;;;;;9.10;5.10;;;;;;;-2.65;74.73;99695.63;105922;1254;62689;-25
2023/01/26 06:51:05;;;;;;;8.80;4.70;;;;;;;-1.86;72.56;99693.19;105516;1254;61119;-25
2023/01/26 06:53:34;;;;;;;9.10;5.40;;;;;;;-1.67;70.45;99694.50;105582;1254;73090;-26
2023/01/26 06:56:27;;;;;;;9.00;4.60;;;;;;;-1.88;69.49;99697.80;105571;1259;75741;-26
2023/01/26 06:59:18;;;;;;;9.60;4.90;;;;;;;-2.16;68.72;99699.55;105874;1254;73179;-27
2023/01/26 07:02:05;;;;;;;12.10;6.70;;;;;;;-2.44;69.21;99697.16;105978;1253;61119;-28
2023/01/26 07:04:32;;;;;;;8.10;4.60;;;;;;;-2.63;69.74;99698.51;105779;1260;61834;-26
2023/01/26 07:07:00;;;;;;;10.50;5.20;;;;;;;-2.78;70.63;99697.74;105959;1254;74757;-27
2023/01/26 07:09:27;;;;;;;11.70;5.90;;;;;;;-2.95;71.36;99695.61;105943;1254;75836;-28
2023/01/26 07:11:58;;;;;;;14.30;6.90;;;;;;;-3.09;72.15;99698.39;105695;1253;74197;-28
2023/01/26 07:14:25;;;;;;;15.20;7.70;;;;;;;-3.18;73.15;99704.10;105913;1254;61595;-28
2023/01/26 07:16:52;;;;;;;10.70;4.70;;;;;;;-3.24;73.60;99701.30;105927;1256;61829;-28
2023/01/26 07:19:19;;;;;;;11.30;6.50;;;;;;;-2.71;73.61;99702.02;105958;1256;74361;-29
2023/01/26 07:21:47;;;;;;;9.80;5.00;;;;;;;-1.95;72.45;99699.50;105964;1254;74876;-28
2023/01/26 07:24:15;;;;;;;12.40;7.10;;;;;;;-1.78;70.93;99706.65;105989;1254;73315;-26
2023/01/26 07:26:42;;;;;;;14.10;7.30;;;;;;;-1.88;70.47;99704.81;105954;1252;61124;-28
2023/01/26 07:29:09;;;;;;;12.20;7.10;;;;;;;-2.11;71.17;99702.17;105989;1257;61726;-28
2023/01/26 07:31:36;;;;;;;10.60;6.10;;;;;;;-2.33;71.54;99707.85;105979;1256;74515;-29
2023/01/26 07:34:03;;;;;;;16.70;7.40;;;;;;;-2.60;72.49;99705.42;105979;1254;75726;-27
2023/01/26 07:36:31;;;;;;;12.80;6.40;;;;;;;-2.78;72.66;99708.95;105766;1254;74037;-26
2023/01/26 07:38:58;;;;;;;15.80;7.70;;;;;;;-2.97;73.09;99703.96;105860;1252;61045;-25
2023/01/26 07:41:25;;;;;;;11.30;5.20;;;;;;;-3.12;73.78;99705.06;105856;1256;61360;-29
2023/01/26 07:43:52;;;;;;;12.10;7.40;;;;;;;-2.93;73.74;99699.65;105763;1254;74626;-28
2023/01/26 07:46:20;;;;;;;9.40;5.40;;;;;;;-2.29;72.97;99695.69;105883;1254;75759;-26
2023/01/26 07:48:47;;;;;;;9.00;5.00;;;;;;;-2.10;71.98;99692.63;105841;1254;73979;-28
2023/01/26 07:51:14;;;;;;;14.00;7.00;;;;;;;-2.24;71.65;99690.15;105948;1254;61147;-27
2023/01/26 07:53:42;;;;;;;13.00;6.50;;;;;;;-2.43;71.76;99690.50;105958;1254;61417;-28
2023/01/26 07:56:14;;;;;;;7.50;4.50;;;;;;;-2.64;71.98;99690.53;106013;1254;74603;-28
2023/01/26 07:58:42;;;;;;;14.50;7.50;;;;;;;-2.84;72.82;99688.65;105928;1256;74989;-28
2023/01/26 08:01:12;;;;;;;14.40;6.80;;;;;;;-3.00;73.33;99687.52;105966;1251;74117;-29
2023/01/26 08:03:40;;;;;;;9.90;6.30;;;;;;;-3.12;73.90;99689.59;105723;1251;61186;-27
2023/01/26 08:06:08;;;;;;;11.90;6.60;;;;;;;-3.20;74.77;99687.50;106001;1256;61573;-27
2023/01/26 08:08:41;;;;;;;10.80;5.90;;;;;;;-3.24;74.59;99682.80;105916;1251;74535;-26
2023/01/26 08:11:09;;;;;;;9.90;3.80;;;;;;;-2.70;74.13;99675.16;105967;1251;75876;-27
2023/01/26 08:13:36;;;;;;;9.80;4.40;;;;;;;-2.12;72.95;99668.16;105736;1251;73380;-25
2023/01/26 08:16:08;;;;;;;9.80;4.40;;;;;;;-2.08;71.61;99663.99;105957;1251;61102;-26
2023/01/26 08:18:35;;;;;;;11.00;5.20;;;;;;;-2.24;71.88;99666.17;105953;1253;61119;-26
2023/01/26 08:21:03;;;;;;;11.50;5.50;;;;;;;-2.41;72.06;99661.22;106025;1251;74593;-27
2023/01/26 08:23:30;;;;;;;7.50;4.40;;;;;;;-2.62;72.34;99660.40;105795;1251;75889;-24
2023/01/26 08:26:01;;;;;;;11.10;5.60;;;;;;;-2.81;73.00;99664.11;105921;1251;74139;-24
2023/01/26 08:28:29;;;;;;;13.90;5.60;;;;;;;-3.00;73.57;99667.81;105734;1251;62904;-24
2023/01/26 08:31:06;;;;;;;10.00;5.00;;;;;;;-3.10;74.02;99663.41;105883;1257;61774;-25
2023/01/26 08:33:33;;;;;;;8.30;4.50;;;;;;;-3.18;73.96;99661.65;105762;1251;74481;-26
2023/01/26 08:36:05;;;;;;;13.60;6.40;;;;;;;-2.88;74.15;99660.84;105859;1251;75983;-25
2023/01/26 08:38:33;;;;;;;8.90;5.10;;;;;;;-2.08;73.11;99656.86;105682;1251;73188;-25
2023/01/26 08:41:01;;;;;;;12.90;5.80;;;;;;;-1.79;71.66;99656.98;105695;1251;61139;-25
2023/01/26 08:43:29;;;;;;;9.50;5.70;;;;;;;-1.87;71.26;99660.02;106020;1256;61969;-25
2023/01/26 08:45:56;;;;;;;14.10;7.10;;;;;;;-2.11;70.50;99658.09;105988;1251;73457;-27
2023/01/26 08:48:24;;;;;;;13.00;6.80;;;;;;;-2.37;71.14;99662.00;105786;1259;75821;-26
2023/01/26 08:50:55;;;;;;;24.50;11.60;;;;;;;-2.69;71.70;99664.77;105818;1251;74113;-27
2023/01/26 08:53:23;;;;;;;17.40;8.80;;;;;;;-2.90;72.41;99667.83;105804;1251;61194;-26
2023/01/26 08:55:52;;;;;;;6.70;3.80;;;;;;;-2.98;72.96;99664.23;105841;1257;62173;-28
2023/01/26 08:58:20;;;;;;;15.20;7.40;;;;;;;-3.08;73.54;99662.17;106020;1251;74206;-29
2023/01/26 09:00:47;;;;;;;8.30;4.90;;;;;;;-2.94;74.00;99658.04;105963;1257;75837;-27
2023/01/26 09:03:15;;;;;;;7.00;4.00;;;;;;;-2.17;72.87;99652.76;105955;1251;74063;-27
2023/01/26 09:05:43;;;;;;;13.10;6.80;;;;;;;-1.86;70.73;99653.52;105921;1251;61172;-26
2023/01/26 09:08:11;;;;;;;15.60;6.50;;;;;;;-1.85;70.96;99649.26;106001;1256;61844;-29
2023/01/26 09:10:39;;;;;;;14.40;6.90;;;;;;;-1.92;70.98;99650.92;105937;1257;73473;-30
2023/01/26 09:13:06;;;;;;;12.70;6.10;;;;;;;-2.06;71.10;99647.11;106059;1251;75577;-27
2023/01/26 09:15:36;;;;;;;16.00;6.80;;;;;;;-2.20;71.76;99643.81;105959;1257;74645;-28
2023/01/26 09:18:05;;;;;;;17.90;6.60;;;;;;;-2.36;71.06;99635.61;105857;1251;61122;-28
2023/01/26 09:20:32;;;;;;;16.00;8.60;;;;;;;-2.70;71.28;99637.59;105988;1255;61169;-28
2023/01/26 09:22:59;;;;;;;13.20;6.80;;;;;;;-2.76;71.99;99636.68;105972;1251;74308;-29
2023/01/26 09:25:27;;;;;;;9.80;5.80;;;;;;;-2.85;72.17;99636.98;106012;1251;75551;-30
2023/01/26 09:27:55;;;;;;;7.80;4.00;;;;;;;-2.87;72.80;99643.99;105727;1251;74159;-28
2023/01/26 09:30:25;;;;;;;11.40;6.30;;;;;;;-2.17;71.31;99641.37;105801;1251;61121;-27
2023/01/26 09:32:57;;;;;;;9.10;5.90;;;;;;;-1.92;69.74;99638.50;106014;1252;61099;-27
2023/01/26 09:35:26;;;;;;;10.00;5.40;;;;;;;-1.90;69.61;99635.05;105771;1257;74475;-29
2023/01/26 09:37:53;;;;;;;10.80;6.60;;;;;;;-2.04;70.17;99629.55;105756;1260;75848;-28
2023/01/26 09:40:53;;;;;;;12.40;7.20;;;;;;;-2.06;70.97;99627.38;105884;1251;74152;-28
2023/01/26 09:43:41;;;;;;;8.40;4.50;;;;;;;-2.17;71.11;99625.39;105715;1251;61111;-28
2023/01/26 09:46:15;;;;;;;11.20;5.70;;;;;;;-2.33;71.06;99626.20;105932;1256;61788;-29
2023/01/26 09:49:05;;;;;;;14.80;7.00;;;;;;;-2.52;72.14;99620.28;105907;1257;74345;-31
2023/01/26 09:51:49;;;;;;;13.30;8.70;;;;;;;-2.66;72.33;99620.53;105793;1257;75932;-27
2023/01/26 09:54:30;;;;;;;12.00;5.90;;;;;;;-2.51;73.01;99618.71;105682;1251;72985;-30
2023/01/26 09:56:59;;;;;;;11.40;5.50;;;;;;;-1.74;71.63;99618.36;105678;1257;61123;-28
2023/01/26 09:59:50;;;;;;;6.60;4.70;;;;;;;-1.49;69.82;99617.32;105655;1260;61669;-28
2023/01/26 10:02:45;;;;;;;5.80;3.50;;;;;;;-1.71;69.12;99611.84;105611;1251;75114;-30
2023/01/26 10:05:26;;;;;;;13.20;6.80;;;;;;;-2.12;69.83;99611.16;105997;1251;76596;-28
2023/01/26 10:07:53;;;;;;;7.30;4.90;;;;;;;-2.37;71.09;99603.83;105914;1251;74137;-27
2023/01/26 10:10:27;;;;;;;10.90;5.70;;;;;;;-2.51;71.55;99604.11;105945;1251;61099;-28
2023/01/26 10:12:55;;;;;;;6.60;3.60;;;;;;;-2.63;72.18;99602.95;105752;1258;61674;-27
2023/01/26 10:15:28;;;;;;;10.00;5.40;;;;;;;-2.76;72.47;99601.66;105945;1251;75578;-26
2023/01/26 10:17:59;;;;;;;11.50;5.20;;;;;;;-2.83;72.51;99594.30;105973;1257;75736;-25
2023/01/26 10:20:47;;;;;;;7.90;4.60;;;;;;;-2.78;73.48;99599.48;105786;1259;74383;-25
2023/01/26 10:23:24;;;;;;;13.60;6.50;;;;;;;-1.97;71.99;99595.05;105941;1256;61541;-25
2023/01/26 10:25:52;;;;;;;13.40;6.60;;;;;;;-1.62;71.35;99594.94;105762;1251;61774;-25
2023/01/26 10:28:27;;;;;;;11.70;7.30;;;;;;;-1.52;71.12;99588.27;105973;1251;75149;-26
2023/01/26 10:30:55;;;;;;;11.60;6.30;;;;;;;-1.58;71.10;99586.52;105868;1251;75746;-26
2023/01/26 10:33:31;;;;;;;15.70;6.00;;;;;;;-1.77;70.88;99583.70;105864;1251;74137;-26
2023/01/26 10:36:00;;;;;;;11.70;6.10;;;;;;;-2.03;71.46;99582.91;105732;1251;61249;-26
2023/01/26 10:38:27;;;;;;;8.40;5.10;;;;;;;-2.20;72.29;99579.19;105749;1251;61793;-26
2023/01/26 10:40:55;;;;;;;6.20;4.50;;;;;;;-2.35;72.73;99577.27;105984;1251;75089;-26
2023/01/26 10:43:22;;;;;;;12.20;6.00;;;;;;;-2.60;73.41;99570.95;105753;1251;75819;-26
2023/01/26 10:45:50;;;;;;;10.40;5.90;;;;;;;-2.66;73.52;99570.55;105721;1251;74065;-26
2023/01/26 10:48:25;;;;;;;6.70;3.60;;;;;;;-2.68;73.94;99570.23;105820;1253;62519;-26
2023/01/26 10:50:52;;;;;;;8.90;5.00;;;;;;;-2.00;74.18;99569.06;105706;1251;61829;-26
2023/01/26 10:53:27;;;;;;;5.20;3.20;;;;;;;-1.28;71.98;99564.18;105948;1251;75316;-26
2023/01/26 10:56:01;;;;;;;8.20;4.90;;;;;;;-1.35;69.84;99560.11;105756;1260;75864;-26
2023/01/26 10:58:46;;;;;;;10.20;5.70;;;;;;;-1.41;70.06;99557.52;105606;1251;73736;-26
2023/01/26 11:01:15;;;;;;;9.00;5.60;;;;;;;-1.74;70.53;99560.00;105758;1251;61084;-25
2023/01/26 11:03:42;;;;;;;12.30;5.70;;;;;;;-1.98;71.43;99552.84;105732;1251;61064;-26
2023/01/26 11:06:14;;;;;;;10.80;5.50;;;;;;;-2.14;71.97;99552.16;105769;1251;75563;-26
2023/01/26 11:08:42;;;;;;;12.30;6.90;;;;;;;-2.28;72.20;99545.16;105780;1260;75919;-25
2023/01/26 11:11:25;;;;;;;12.30;6.50;;;;;;;-2.37;73.09;99544.98;105755;1251;74011;-25
2023/01/26 11:14:15;;;;;;;9.00;5.30;;;;;;;-2.39;73.32;99540.61;105912;1257;61173;-26
2023/01/26 11:16:59;;;;;;;12.60;6.00;;;;;;;-2.48;73.01;99541.48;105624;1260;61815;-26
2023/01/26 11:19:50;;;;;;;9.50;5.50;;;;;;;-1.95;73.64;99537.11;105713;1251;75212;-26
2023/01/26 11:22:37;;;;;;;14.20;7.00;;;;;;;-1.01;72.25;99530.44;105967;1251;75656;-26
2023/01/26 11:25:35;;;;;;;12.40;6.60;;;;;;;-0.74;70.93;99528.38;105941;1251;75267;-26
2023/01/26 11:28:21;;;;;;;10.80;6.00;;;;;;;-0.88;69.93;99526.89;105925;1251;61141;-26
2023/01/26 11:31:07;;;;;;;11.50;5.90;;;;;;;-1.18;69.71;99522.20;105870;1251;61656;-26
2023/01/26 11:33:58;;;;;;;8.90;4.50;;;;;;;-1.49;70.46;99515.63;105957;1251;74970;-26
2023/01/26 11:36:40;;;;;;;9.50;5.60;;;;;;;-1.72;70.90;99508.55;105975;1251;75590;-26
2023/01/26 11:39:27;;;;;;;9.90;5.30;;;;;;;-1.93;71.59;99510.36;105894;1254;74228;-26
2023/01/26 11:42:25;;;;;;;8.20;4.40;;;;;;;-2.12;71.92;99509.42;105864;1251;61185;-26
2023/01/26 11:45:24;;;;;;;11.60;5.50;;;;;;;-2.30;72.79;99503.17;105947;1256;61565;-26
2023/01/26 11:48:16;;;;;;;6.80;4.30;;;;;;;-2.16;72.97;99499.46;105939;1251;75352;-26
2023/01/26 11:50:46;;;;;;;8.40;4.90;;;;;;;-1.28;71.44;99496.89;105848;1257;74238;-26
2023/01/26 11:53:35;;;;;;;11.30;5.70;;;;;;;-0.97;69.72;99496.10;105903;1251;75201;-26
2023/01/26 11:56:28;;;;;;;8.90;4.20;;;;;;;-1.06;69.27;99491.55;105969;1256;61092;-26
2023/01/26 11:59:09;;;;;;;7.50;3.20;;;;;;;-1.35;69.75;99487.19;105739;1257;61170;-26
2023/01/26 12:01:42;;;;;;;10.10;5.10;;;;;;;-1.54;70.70;99489.20;105800;1251;75402;-26
2023/01/26 12:04:20;;;;;;;10.90;5.40;;;;;;;-1.72;70.93;99486.73;105788;1251;75898;-26
2023/01/26 12:06:54;;;;;;;13.40;6.70;;;;;;;-1.93;71.45;99487.02;105956;1251;73916;-26
2023/01/26 12:09:35;;;;;;;4.80;3.30;;;;;;;-2.17;71.94;99485.73;105931;1251;61122;-26
2023/01/26 12:12:06;;;;;;;4.00;2.50;;;;;;;-2.30;72.48;99492.80;105763;1251;60978;-26
2023/01/26 12:14:43;;;;;;;8.30;4.60;;;;;;;-2.43;72.55;99494.61;105729;1251;75346;-26
2023/01/26 12:17:29;;;;;;;7.80;4.20;;;;;;;-2.02;72.74;99491.32;105757;1260;74838;-26
2023/01/26 12:20:04;;;;;;;7.20;4.10;;;;;;;-1.35;71.02;99488.22;105974;1251;74214;-26
2023/01/26 12:22:32;;;;;;;8.60;4.40;;;;;;;-1.40;70.04;99496.35;105785;1251;61182;-26
2023/01/26 12:25:18;;;;;;;10.90;5.70;;;;;;;-1.49;70.32;99495.89;105970;1252;61010;-26
2023/01/26 12:28:00;;;;;;;8.60;5.50;;;;;;;-1.61;70.94;99491.23;105697;1257;75668;-26
2023/01/26 12:30:36;;;;;;;11.20;5.50;;;;;;;-1.75;71.26;99487.98;105932;1251;75434;-26
2023/01/26 12:33:04;;;;;;;8.60;4.60;;;;;;;-1.90;72.04;99487.33;105609;1251;74152;-26
2023/01/26 12:35:58;;;;;;;10.00;5.80;;;;;;;-2.07;72.18;99489.55;105653;1252;61163;-26
2023/01/26 12:38:38;;;;;;;9.40;4.40;;;;;;;-2.24;72.60;99485.20;105716;1256;61783;-26
2023/01/26 12:41:29;;;;;;;12.20;6.00;;;;;;;-2.37;72.77;99483.77;105849;1251;75281;-25
2023/01/26 12:44:23;;;;;;;8.60;4.30;;;;;;;-2.36;73.61;99482.90;105932;1257;75684;-25
2023/01/26 12:46:52;;;;;;;10.60;5.60;;;;;;;-1.53;73.28;99480.32;105916;1254;73978;-25